createdAt,value
2018-05-09T00:02:15.059Z,74.10
2018-05-09T00:04:44.848Z,75.90
2018-05-09T00:07:17.451Z,75.60
2018-05-09T00:09:47.060Z,73.60
2018-05-09T00:12:19.502Z,73.60
2018-05-09T00:14:49.642Z,73.80
2018-05-09T00:17:21.938Z,75.40
2018-05-09T00:19:50.926Z,74.80
2018-05-09T00:22:23.618Z,75.60
2018-05-09T00:24:52.790Z,75.40
2018-05-09T00:27:30.191Z,74.50
2018-05-09T00:29:58.993Z,72.20
2018-05-09T00:32:28.024Z,73.20
2018-05-09T00:34:57.045Z,76.20
2018-05-09T00:37:29.981Z,74.70
2018-05-09T00:39:59.559Z,73.30
2018-05-09T00:42:35.780Z,74.40
2018-05-09T00:45:05.057Z,73.40
2018-05-09T00:47:34.937Z,74.60
2018-05-09T00:50:04.760Z,74.50
2018-05-09T00:52:38.177Z,74.00
2018-05-09T00:55:08.046Z,75.60
2018-05-09T00:57:40.462Z,75.60
2018-05-09T01:00:09.734Z,76.80
2018-05-09T01:02:42.079Z,76.90
2018-05-09T01:05:10.935Z,75.30
2018-05-09T01:07:49.379Z,76.00
2018-05-09T01:10:18.639Z,75.90
2018-05-09T01:12:48.332Z,76.90
2018-05-09T01:15:17.384Z,76.80
2018-05-09T01:17:53.544Z,75.90
2018-05-09T01:20:22.346Z,76.60
2018-05-09T01:22:52.978Z,76.60
2018-05-09T01:25:21.912Z,75.70
2018-05-09T01:27:55.566Z,76.00
2018-05-09T01:30:24.530Z,76.00
2018-05-09T01:33:01.376Z,77.10
2018-05-09T01:35:30.775Z,76.90
2018-05-09T01:38:00.958Z,76.60
2018-05-09T01:40:29.691Z,77.60
2018-05-09T01:43:06.520Z,76.20
2018-05-09T01:45:36.188Z,78.00
2018-05-09T01:48:06.162Z,78.00
2018-05-09T01:50:36.787Z,75.90
2018-05-09T01:53:09.139Z,75.80
2018-05-09T01:55:37.947Z,76.70
2018-05-09T01:58:13.645Z,77.70
2018-05-09T02:00:42.373Z,78.10
2018-05-09T02:03:14.756Z,76.70
2018-05-09T02:05:43.530Z,78.50
2018-05-09T02:08:16.144Z,77.80
2018-05-09T02:10:46.277Z,77.90
2018-05-09T02:13:19.509Z,78.90
2018-05-09T02:15:48.229Z,78.90
2018-05-09T02:18:20.565Z,78.70
2018-05-09T02:20:49.464Z,78.60
2018-05-09T02:23:25.545Z,79.80
2018-05-09T02:25:55.291Z,78.20
2018-05-09T02:28:25.058Z,78.20
2018-05-09T02:30:53.925Z,79.10
2018-05-09T02:33:27.705Z,78.80
2018-05-09T02:35:56.409Z,78.70
2018-05-09T02:38:29.465Z,79.20
2018-05-09T02:40:58.596Z,79.00
2018-05-09T02:43:34.460Z,79.80
2018-05-09T02:46:03.558Z,79.50
2018-05-09T02:48:34.275Z,80.70
2018-05-09T02:51:03.051Z,80.70
2018-05-09T02:53:39.775Z,81.20
2018-05-09T02:56:08.597Z,81.20
2018-05-09T02:58:38.931Z,81.50
2018-05-09T03:01:08.289Z,81.50
2018-05-09T03:03:41.625Z,83.70
2018-05-09T03:06:10.334Z,83.60
2018-05-09T03:08:46.766Z,85.00
2018-05-09T03:11:15.692Z,85.40
2018-05-09T03:13:46.371Z,85.40
2018-05-09T03:16:16.231Z,87.10
2018-05-09T03:18:48.934Z,87.00
2018-05-09T03:21:17.646Z,86.60
2018-05-09T03:23:51.724Z,87.10
2018-05-09T03:26:20.544Z,87.10
2018-05-09T03:28:57.284Z,87.90
2018-05-09T03:31:27.387Z,87.50
2018-05-09T03:33:57.125Z,88.00
2018-05-09T03:36:25.858Z,88.00
2018-05-09T03:39:02.978Z,88.40
2018-05-09T03:41:31.771Z,88.30
2018-05-09T03:44:02.684Z,89.10
2018-05-09T03:46:31.915Z,88.00
2018-05-09T03:49:08.587Z,88.80
2018-05-09T03:51:37.848Z,89.20
2018-05-09T03:54:07.884Z,88.10
2018-05-09T03:56:36.804Z,88.40
2018-05-09T03:59:10.526Z,88.60
2018-05-09T04:01:49.228Z,89.20
2018-05-09T04:05:26.977Z,88.90
2018-05-09T04:10:42.609Z,89.90
2018-05-09T04:13:20.899Z,89.10
2018-05-09T04:15:49.656Z,89.00
2018-05-09T04:18:19.815Z,89.90
2018-05-09T04:20:49.055Z,89.00
2018-05-09T04:23:22.559Z,89.70
2018-05-09T04:25:51.273Z,89.70
2018-05-09T04:28:24.334Z,89.70
2018-05-09T04:30:53.620Z,89.10
2018-05-09T04:33:29.509Z,89.80
2018-05-09T04:35:58.255Z,89.00
2018-05-09T04:38:28.553Z,88.90
2018-05-09T04:40:58.091Z,89.20
2018-05-09T04:43:31.050Z,89.80
2018-05-09T04:46:00.199Z,89.80
2018-05-09T04:48:36.325Z,89.50
2018-05-09T04:51:05.098Z,90.10
2018-05-09T04:53:35.926Z,89.10
2018-05-09T04:56:05.696Z,89.70
2018-05-09T04:58:38.040Z,89.70
2018-05-09T05:01:06.875Z,90.00
2018-05-09T05:03:42.989Z,86.50
2018-05-09T05:06:12.312Z,88.30
2018-05-09T05:08:42.714Z,88.30
2018-05-09T05:11:12.570Z,90.40
2018-05-09T05:13:46.356Z,90.80
2018-05-09T05:16:15.123Z,90.80
2018-05-09T05:18:47.904Z,90.40
2018-05-09T05:21:16.993Z,90.40
2018-05-09T05:23:53.294Z,88.00
2018-05-09T05:26:22.886Z,86.40
2018-05-09T05:28:53.674Z,87.80
2018-05-09T05:31:22.585Z,87.00
2018-05-09T05:33:59.436Z,84.70
2018-05-09T05:36:28.363Z,84.60
2018-05-09T05:38:58.918Z,86.60
2018-05-09T05:41:27.853Z,88.70
2018-05-09T05:44:04.945Z,90.40
2018-05-09T05:46:34.552Z,83.80
2018-05-09T05:49:03.868Z,83.70
2018-05-09T05:51:32.959Z,85.50
2018-05-09T05:54:09.849Z,84.80
2018-05-09T05:56:38.739Z,85.00
2018-05-09T05:59:09.270Z,85.50
2018-05-09T06:01:38.104Z,83.00
2018-05-09T06:04:15.294Z,82.20
2018-05-09T06:06:44.341Z,82.10
2018-05-09T06:09:16.649Z,79.30
2018-05-09T06:11:45.482Z,79.90
2018-05-09T06:14:20.782Z,82.10
2018-05-09T06:16:52.504Z,79.30
2018-05-09T06:19:22.243Z,78.40
2018-05-09T06:21:51.818Z,79.70
2018-05-09T06:24:21.880Z,79.70
2018-05-09T06:26:51.274Z,77.80
2018-05-09T06:29:24.126Z,79.10
2018-05-09T06:31:52.942Z,78.60
2018-05-09T06:34:27.076Z,79.20
2018-05-09T06:36:55.981Z,79.30
2018-05-09T06:39:28.715Z,80.10
2018-05-09T06:41:58.594Z,80.30
2018-05-09T06:44:32.064Z,81.20
2018-05-09T06:47:01.566Z,81.00
2018-05-09T06:49:34.759Z,81.70
2018-05-09T06:52:03.547Z,82.00
2018-05-09T06:54:36.410Z,80.50
2018-05-09T06:57:05.303Z,80.10
2018-05-09T06:59:38.786Z,83.20
2018-05-09T07:02:07.874Z,82.60
2018-05-09T07:04:40.482Z,83.70
2018-05-09T07:07:10.119Z,84.90
2018-05-09T07:09:47.013Z,84.80
2018-05-09T07:12:15.983Z,84.20
2018-05-09T07:14:53.474Z,84.40
2018-05-09T07:17:22.678Z,85.10
2018-05-09T07:19:51.649Z,85.50
2018-05-09T07:22:20.748Z,86.00
2018-05-09T07:24:57.031Z,84.40
2018-05-09T07:27:26.075Z,84.10
2018-05-09T07:29:56.040Z,83.60
2018-05-09T07:32:25.955Z,82.80
2018-05-09T07:34:55.514Z,82.80
2018-05-09T07:37:25.111Z,80.50
2018-05-09T07:40:01.280Z,80.30
2018-05-09T07:42:30.138Z,80.20
2018-05-09T07:45:02.539Z,79.30
2018-05-09T07:47:31.783Z,79.60
2018-05-09T07:50:08.436Z,79.50
2018-05-09T07:52:37.426Z,80.30
2018-05-09T07:55:07.507Z,80.00
2018-05-09T07:57:36.298Z,79.00
2018-05-09T08:00:08.705Z,77.50
2018-05-09T08:02:38.735Z,78.60
2018-05-09T08:05:15.737Z,78.60
2018-05-09T08:07:45.494Z,78.10
2018-05-09T08:10:16.138Z,77.40
2018-05-09T08:12:44.994Z,76.30
2018-05-09T08:15:18.014Z,74.50
2018-05-09T08:17:46.868Z,74.50
2018-05-09T08:20:19.433Z,75.00
2018-05-09T08:22:48.597Z,75.80
2018-05-09T08:25:24.831Z,74.90
2018-05-09T08:27:54.755Z,75.90
2018-05-09T08:30:24.306Z,75.80
2018-05-09T08:32:53.191Z,75.60
2018-05-09T08:35:25.707Z,77.00
2018-05-09T08:37:55.366Z,73.10
2018-05-09T08:40:27.824Z,73.00
2018-05-09T08:42:56.931Z,73.40
2018-05-09T08:45:33.378Z,73.20
2018-05-09T08:48:02.308Z,71.90
2018-05-09T08:50:34.257Z,72.20
2018-05-09T08:53:03.187Z,72.50
2018-05-09T08:55:35.754Z,75.70
2018-05-09T08:58:04.953Z,75.90
2018-05-09T09:00:37.515Z,75.00
2018-05-09T09:03:06.456Z,71.90
2018-05-09T09:05:40.664Z,71.30
2018-05-09T09:08:09.549Z,71.90
2018-05-09T09:10:42.354Z,65.90
2018-05-09T09:13:11.510Z,66.70
2018-05-09T09:15:48.345Z,60.40
2018-05-09T09:18:17.933Z,60.40
2018-05-09T09:20:48.065Z,64.20
2018-05-09T09:23:17.189Z,56.70
2018-05-09T09:25:55.113Z,52.20
2018-05-09T09:28:25.993Z,54.10
2018-05-09T09:31:00.577Z,54.10
2018-05-09T09:33:30.308Z,54.20
2018-05-09T09:35:59.483Z,52.10
2018-05-09T09:38:29.428Z,47.70
2018-05-09T09:41:00.064Z,57.30
2018-05-09T09:43:28.887Z,44.90
2018-05-09T09:46:05.641Z,42.80
2018-05-09T09:48:34.429Z,44.30
2018-05-09T09:51:03.889Z,44.60
2018-05-09T09:53:32.677Z,48.20
2018-05-09T09:56:05.821Z,50.30
2018-05-09T09:58:34.655Z,44.10
2018-05-09T10:01:11.227Z,45.50
2018-05-09T10:03:40.344Z,46.40
2018-05-09T10:06:12.870Z,45.60
2018-05-09T10:08:42.525Z,43.50
2018-05-09T10:11:15.410Z,43.50
2018-05-09T10:13:44.284Z,47.30
2018-05-09T10:16:16.979Z,46.70
2018-05-09T10:18:45.798Z,48.60
2018-05-09T10:21:22.006Z,40.80
2018-05-09T10:23:51.100Z,42.50
2018-05-09T10:26:21.961Z,43.20
2018-05-09T10:28:50.952Z,45.90
2018-05-09T10:31:23.600Z,44.30
2018-05-09T10:33:52.398Z,44.30
2018-05-09T10:36:28.844Z,44.40
2018-05-09T10:38:58.765Z,46.40
2018-05-09T10:41:28.449Z,47.20
2018-05-09T10:43:57.329Z,47.20
2018-05-09T10:46:35.583Z,41.60
2018-05-09T10:49:04.439Z,43.80
2018-05-09T10:51:33.310Z,42.40
2018-05-09T10:54:03.459Z,43.00
2018-05-09T10:56:37.185Z,41.90
2018-05-09T10:59:06.010Z,42.20
2018-05-09T11:01:36.598Z,39.60
2018-05-09T11:04:05.417Z,41.70
2018-05-09T11:06:41.464Z,41.80
2018-05-09T11:09:10.677Z,42.10
2018-05-09T11:11:41.219Z,39.50
2018-05-09T11:14:10.119Z,41.40
2018-05-09T11:16:43.854Z,44.40
2018-05-09T11:19:13.460Z,39.20
2018-05-09T11:21:46.487Z,43.90
2018-05-09T11:24:15.690Z,44.00
2018-05-09T11:26:52.094Z,36.60
2018-05-09T11:29:20.975Z,40.60
2018-05-09T11:31:51.490Z,41.30
2018-05-09T11:34:20.324Z,40.00
2018-05-09T11:36:53.422Z,41.60
2018-05-09T11:39:23.789Z,41.60
2018-05-09T11:41:56.099Z,37.70
2018-05-09T11:44:25.284Z,37.40
2018-05-09T11:46:59.796Z,45.80
2018-05-09T11:49:28.699Z,45.80
2018-05-09T11:52:02.196Z,37.40
2018-05-09T11:54:32.345Z,35.60
2018-05-09T11:57:04.528Z,35.50
2018-05-09T11:59:33.408Z,39.70
2018-05-09T12:02:07.585Z,39.30
2018-05-09T12:04:37.381Z,35.90
2018-05-09T12:07:10.558Z,39.00
2018-05-09T12:09:39.741Z,38.90
2018-05-09T12:12:16.363Z,36.70
2018-05-09T12:14:45.393Z,41.90
2018-05-09T12:17:15.356Z,37.30
2018-05-09T12:19:44.182Z,40.50
2018-05-09T12:22:20.331Z,38.80
2018-05-09T12:24:49.494Z,38.30
2018-05-09T12:27:19.923Z,39.00
2018-05-09T12:29:48.771Z,36.90
2018-05-09T12:32:22.299Z,41.30
2018-05-09T12:34:51.161Z,41.10
2018-05-09T12:37:23.757Z,41.00
2018-05-09T12:39:52.918Z,38.60
2018-05-09T12:42:29.261Z,38.20
2018-05-09T12:44:58.942Z,38.70
2018-05-09T12:47:31.094Z,38.80
2018-05-09T12:49:59.978Z,39.50
2018-05-09T12:52:31.834Z,41.10
2018-05-09T12:55:00.726Z,38.90
2018-05-09T12:57:37.161Z,37.40
2018-05-09T13:00:06.036Z,40.70
2018-05-09T13:02:36.111Z,37.90
2018-05-09T13:05:04.984Z,45.40
2018-05-09T13:07:41.867Z,38.20
2018-05-09T13:10:11.519Z,38.70
2018-05-09T13:12:45.029Z,38.90
2018-05-09T13:15:14.681Z,39.00
2018-05-09T13:17:43.501Z,38.80
2018-05-09T13:20:13.098Z,42.50
2018-05-09T13:22:54.320Z,42.40
2018-05-09T13:25:23.168Z,40.30
2018-05-09T13:27:53.827Z,38.60
2018-05-09T13:30:25.509Z,43.60
2018-05-09T13:32:54.374Z,43.60
2018-05-09T13:35:23.238Z,42.90
2018-05-09T13:37:56.453Z,38.60
2018-05-09T13:40:25.934Z,38.20
2018-05-09T13:42:59.000Z,39.80
2018-05-09T13:45:28.322Z,39.90
2018-05-09T13:48:01.716Z,39.60
2018-05-09T13:50:31.351Z,39.10
2018-05-09T13:53:02.915Z,39.10
2018-05-09T13:55:32.025Z,45.60
2018-05-09T13:58:05.715Z,45.20
2018-05-09T14:00:34.961Z,45.10
2018-05-09T14:03:11.616Z,43.40
2018-05-09T14:05:40.770Z,40.50
2018-05-09T14:08:17.299Z,38.50
2018-05-09T14:10:46.359Z,42.30
2018-05-09T14:13:15.884Z,39.90
2018-05-09T14:15:44.964Z,40.70
2018-05-09T14:18:21.316Z,39.40
2018-05-09T14:20:50.687Z,44.70
2018-05-09T14:23:20.256Z,40.70
2018-05-09T14:25:51.382Z,40.70
2018-05-09T14:28:20.346Z,41.40
2018-05-09T14:30:49.249Z,45.10
2018-05-09T14:33:24.115Z,42.70
2018-05-09T14:35:53.932Z,43.20
2018-05-09T14:38:25.032Z,44.80
2018-05-09T14:40:54.315Z,44.80
2018-05-09T14:43:30.422Z,43.60
2018-05-09T14:45:59.315Z,40.10
2018-05-09T14:48:30.522Z,44.80
2018-05-09T14:51:00.625Z,44.90
2018-05-09T14:53:31.759Z,42.80
2018-05-09T14:56:01.951Z,43.80
2018-05-09T14:58:35.201Z,44.30
2018-05-09T15:01:04.329Z,44.30
2018-05-09T15:03:41.632Z,45.60
2018-05-09T15:06:11.011Z,48.30
2018-05-09T15:08:40.733Z,43.30
2018-05-09T15:11:10.372Z,49.40
2018-05-09T15:13:42.422Z,49.30
2018-05-09T15:16:11.557Z,49.30
2018-05-09T15:18:44.299Z,48.20
2018-05-09T15:23:47.138Z,55.00
2018-05-09T15:26:16.144Z,48.70
2018-05-09T15:28:49.721Z,52.80
2018-05-09T15:31:18.597Z,49.70
2018-05-09T15:33:55.337Z,51.00
2018-05-09T15:36:25.017Z,51.10
2018-05-09T15:38:54.883Z,51.10
2018-05-09T15:41:23.678Z,54.90
2018-05-09T15:43:56.639Z,50.00
2018-05-09T15:46:26.309Z,51.00
2018-05-09T15:49:03.245Z,51.00
2018-05-09T15:51:32.126Z,54.20
2018-05-09T15:54:02.283Z,49.60
2018-05-09T15:56:31.190Z,53.10
2018-05-09T15:59:08.991Z,48.90
2018-05-09T16:01:38.156Z,48.30
2018-05-09T16:04:08.557Z,51.80
2018-05-09T16:06:37.425Z,51.20
2018-05-09T16:09:11.566Z,48.50
2018-05-09T16:11:40.478Z,48.50
2018-05-09T16:14:16.658Z,52.20
2018-05-09T16:16:45.703Z,58.90
2018-05-09T16:19:16.335Z,58.10
2018-05-09T16:21:45.191Z,52.80
2018-05-09T16:24:18.659Z,56.20
2018-05-09T16:26:47.465Z,62.00
2018-05-09T16:29:24.567Z,56.20
2018-05-09T16:31:53.625Z,62.10
2018-05-09T16:34:23.219Z,66.10
2018-05-09T16:36:52.089Z,66.10
2018-05-09T16:39:25.881Z,56.80
2018-05-09T16:41:55.505Z,64.10
2018-05-09T16:44:26.511Z,64.20
2018-05-09T16:46:56.327Z,65.40
2018-05-09T16:49:28.732Z,65.30
2018-05-09T16:51:57.574Z,62.70
2018-05-09T16:54:39.595Z,53.80
2018-05-09T16:57:09.256Z,55.50
2018-05-09T16:59:38.554Z,55.50
2018-05-09T17:02:08.273Z,58.20
2018-05-09T17:04:37.857Z,58.40
2018-05-09T17:07:06.836Z,58.40
2018-05-09T17:09:48.145Z,60.20
2018-05-09T17:12:17.224Z,64.20
2018-05-09T17:14:46.132Z,66.60
2018-05-09T17:17:15.141Z,66.50
2018-05-09T17:19:45.362Z,61.80
2018-05-09T17:22:45.904Z,61.90
2018-05-09T17:25:16.812Z,67.90
2018-05-09T17:27:53.135Z,67.80
2018-05-09T17:30:22.272Z,63.00
2018-05-09T17:32:51.247Z,68.80
2018-05-09T17:35:20.096Z,69.60
2018-05-09T17:37:57.457Z,66.30
2018-05-09T17:40:26.360Z,66.10
2018-05-09T17:42:56.884Z,63.30
2018-05-09T17:45:25.804Z,63.30
2018-05-09T17:48:02.501Z,65.30
2018-05-09T17:50:31.659Z,69.30
2018-05-09T17:53:02.899Z,71.90
2018-05-09T17:55:32.491Z,72.20
2018-05-09T17:58:08.588Z,72.20
2018-05-09T18:00:37.612Z,74.40
2018-05-09T18:03:09.547Z,73.40
2018-05-09T18:05:38.480Z,73.90
2018-05-09T18:08:10.966Z,75.50
2018-05-09T18:10:39.858Z,72.80
2018-05-09T18:13:16.857Z,73.60
2018-05-09T18:15:46.529Z,71.40
2018-05-09T18:18:16.607Z,71.20
2018-05-09T18:20:46.470Z,70.60
2018-05-09T18:23:22.306Z,68.50
2018-05-09T18:25:51.119Z,69.00
2018-05-09T18:28:21.940Z,71.00
2018-05-09T18:30:50.848Z,71.30
2018-05-09T18:33:23.173Z,72.30
2018-05-09T18:35:53.256Z,74.00
2018-05-09T18:40:53.888Z,73.50
2018-05-09T18:43:27.044Z,76.00
2018-05-09T18:45:55.873Z,76.00
2018-05-09T18:48:32.641Z,75.60
2018-05-09T18:51:02.269Z,74.10
2018-05-09T18:53:31.468Z,74.10
2018-05-09T18:56:00.657Z,75.30
2018-05-09T18:58:36.757Z,77.00
2018-05-09T19:01:05.714Z,74.20
2018-05-09T19:03:37.335Z,76.40
2018-05-09T19:06:06.348Z,74.90
2018-05-09T19:08:40.065Z,75.60
2018-05-09T19:11:09.308Z,75.70
2018-05-09T19:13:41.445Z,76.30
2018-05-09T19:16:10.303Z,76.50
2018-05-09T19:18:48.549Z,78.50
2018-05-09T19:21:17.568Z,78.40
2018-05-09T19:23:46.512Z,79.40
2018-05-09T19:26:15.415Z,79.80
2018-05-09T19:28:51.809Z,78.70
2018-05-09T19:31:20.667Z,79.20
2018-05-09T19:33:51.299Z,79.20
2018-05-09T19:36:20.479Z,79.20
2018-05-09T19:38:57.434Z,79.30
2018-05-09T19:43:57.035Z,79.30
2018-05-09T19:46:26.641Z,80.20
2018-05-09T19:48:59.182Z,80.90
2018-05-09T19:51:28.256Z,80.80
2018-05-09T19:54:09.626Z,80.20
2018-05-09T19:56:39.251Z,80.50
2018-05-09T19:59:08.104Z,80.50
2018-05-09T20:01:38.111Z,80.40
2018-05-09T20:04:07.357Z,80.30
2018-05-09T20:06:36.230Z,81.20
2018-05-09T20:09:09.104Z,80.40
2018-05-09T20:11:38.739Z,80.20
2018-05-09T20:14:20.235Z,80.30
2018-05-09T20:16:50.456Z,80.80
2018-05-09T20:19:19.403Z,80.60
2018-05-09T20:21:49.662Z,81.10
2018-05-09T20:24:18.808Z,81.10
2018-05-09T20:26:47.642Z,81.70
2018-05-09T20:29:20.539Z,81.50
2018-05-09T20:32:58.959Z,83.30
2018-05-09T20:35:28.601Z,83.70
2018-05-09T20:37:57.849Z,84.00
2018-05-09T20:40:26.721Z,83.70
2018-05-09T20:42:56.372Z,85.60
2018-05-09T20:45:26.811Z,85.60
2018-05-09T20:47:55.654Z,84.70
2018-05-09T20:50:31.928Z,83.40
2018-05-09T20:53:01.088Z,83.40
2018-05-09T20:55:30.574Z,83.30
2018-05-09T20:57:59.546Z,83.80
2018-05-09T21:00:57.788Z,85.00
2018-05-09T21:03:35.246Z,84.90
2018-05-09T21:06:05.894Z,85.10
2018-05-09T21:08:36.564Z,85.10
2018-05-09T21:11:07.730Z,85.10
2018-05-09T21:13:39.494Z,85.10
2018-05-09T21:16:08.301Z,85.90
2018-05-09T21:18:41.830Z,85.20
2018-05-09T21:21:11.420Z,86.00
2018-05-09T21:23:47.988Z,85.90
2018-05-09T21:26:19.950Z,86.70
2018-05-09T21:28:49.920Z,87.00
2018-05-09T21:31:18.976Z,87.00
2018-05-09T21:33:51.611Z,87.00
2018-05-09T21:36:21.626Z,86.80
2018-05-09T21:38:55.015Z,85.90
2018-05-09T21:41:25.099Z,85.90
2018-05-09T21:44:01.575Z,86.50
2018-05-09T21:46:30.789Z,86.50
2018-05-09T21:49:01.745Z,86.90
2018-05-09T21:51:30.976Z,86.30
2018-05-09T21:54:04.004Z,86.60
2018-05-09T21:56:34.193Z,86.70
2018-05-09T21:59:07.608Z,85.90
2018-05-09T22:01:37.169Z,85.90
2018-05-09T22:04:19.594Z,85.80
2018-05-09T22:06:51.807Z,85.90
2018-05-09T22:09:24.677Z,86.30
2018-05-09T22:11:53.593Z,86.20
2018-05-09T22:14:22.909Z,86.50
2018-05-09T22:16:55.173Z,86.40
2018-05-09T22:19:28.567Z,87.40
2018-05-09T22:21:58.090Z,87.40
2018-05-09T22:24:29.763Z,88.50
2018-05-09T22:27:00.756Z,88.40
2018-05-09T22:29:31.350Z,87.00
2018-05-09T22:32:01.209Z,87.10
2018-05-09T22:34:30.876Z,87.00
2018-05-09T22:37:01.229Z,87.00
2018-05-09T22:39:30.136Z,87.30
2018-05-09T22:41:58.952Z,87.60
2018-05-09T22:44:28.664Z,87.70
2018-05-09T22:46:57.437Z,88.80
2018-05-09T22:49:30.154Z,88.70
2018-05-09T22:52:00.082Z,89.10
2018-05-09T22:54:32.697Z,88.30
2018-05-09T22:57:02.340Z,88.90
2018-05-09T22:59:38.706Z,88.90
2018-05-09T23:02:07.568Z,89.50
2018-05-09T23:04:38.394Z,89.10
2018-05-09T23:07:08.137Z,89.70
2018-05-09T23:09:39.081Z,89.60
2018-05-09T23:12:08.163Z,90.40
2018-05-09T23:14:40.430Z,89.90
2018-05-09T23:17:10.709Z,90.30
2018-05-09T23:19:47.345Z,90.30
2018-05-09T23:22:16.286Z,90.40
2018-05-09T23:24:46.757Z,90.50
2018-05-09T23:27:16.837Z,90.70
2018-05-09T23:29:49.366Z,90.70
2018-05-09T23:32:18.239Z,90.60
2018-05-09T23:34:51.840Z,90.80
2018-05-09T23:37:20.749Z,90.50
2018-05-09T23:39:57.312Z,90.50
2018-05-09T23:42:26.389Z,90.70
2018-05-09T23:44:58.470Z,91.10
2018-05-09T23:47:27.284Z,91.20
2018-05-09T23:50:02.025Z,91.20
2018-05-09T23:52:32.464Z,90.90
2018-05-09T23:55:02.488Z,90.90
2018-05-09T23:57:31.624Z,90.80
